createdAt,value
2022-09-01T00:00:21.791Z,101125.02
2022-09-01T00:05:42.245Z,101122.56
2022-09-01T00:10:48.314Z,101121.80
2022-09-01T00:15:54.672Z,101123.54
2022-09-01T00:21:00.820Z,101123.02
2022-09-01T00:26:07.306Z,101124.66
2022-09-01T00:31:15.264Z,101127.73
2022-09-01T00:36:22.502Z,101124.95
2022-09-01T00:41:31.973Z,101119.42
2022-09-01T00:46:43.176Z,101122.02
2022-09-01T00:51:59.855Z,101121.48
2022-09-01T00:57:06.609Z,101114.55
2022-09-01T01:02:12.958Z,101115.95
2022-09-01T01:07:20.200Z,101112.89
2022-09-01T01:12:28.009Z,101117.20
2022-09-01T01:17:35.018Z,101122.69
2022-09-01T01:23:10.296Z,101123.36
2022-09-01T01:28:20.162Z,101124.56
2022-09-01T01:33:32.682Z,101123.24
2022-09-01T01:38:38.626Z,101119.30
2022-09-01T01:43:44.463Z,101118.49
2022-09-01T01:48:52.423Z,101113.11
2022-09-01T01:54:05.493Z,101116.23
2022-09-01T01:59:15.439Z,101114.89
2022-09-01T02:04:22.581Z,101117.81
2022-09-01T02:09:30.456Z,101118.70
2022-09-01T02:14:36.390Z,101115.39
2022-09-01T02:19:43.029Z,101117.79
2022-09-01T02:24:52.573Z,101113.52
2022-09-01T02:29:58.950Z,101112.86
2022-09-01T02:35:09.859Z,101112.11
2022-09-01T02:40:16.082Z,101112.70
2022-09-01T02:45:24.110Z,101116.42
2022-09-01T02:50:31.152Z,101115.14
2022-09-01T02:55:37.491Z,101118.01
2022-09-01T03:00:43.659Z,101116.83
2022-09-01T03:05:54.721Z,101118.77
2022-09-01T03:11:02.111Z,101123.66
2022-09-01T03:16:09.768Z,101120.05
2022-09-01T03:21:17.235Z,101119.20
2022-09-01T03:26:23.921Z,101122.27
2022-09-01T03:31:31.326Z,101125.14
2022-09-01T03:36:39.916Z,101124.34
2022-09-01T03:41:45.934Z,101127.67
2022-09-01T03:46:52.803Z,101129.45
2022-09-01T03:51:58.916Z,101128.15
2022-09-01T03:57:10.405Z,101127.92
2022-09-01T04:02:20.586Z,101125.89
2022-09-01T04:07:27.613Z,101122.39
2022-09-01T04:12:33.376Z,101119.20
2022-09-01T04:17:57.789Z,101121.02
2022-09-01T04:23:11.041Z,101122.95
2022-09-01T04:28:23.289Z,101120.04
2022-09-01T04:33:36.959Z,101120.59
2022-09-01T04:38:43.073Z,101119.47
2022-09-01T04:43:51.967Z,101120.08
2022-09-01T04:48:59.777Z,101119.65
2022-09-01T04:54:12.400Z,101122.45
2022-09-01T04:59:21.705Z,101123.70
2022-09-01T05:04:34.997Z,101128.90
2022-09-01T05:09:41.293Z,101126.09
2022-09-01T05:14:53.982Z,101118.98
2022-09-01T05:20:02.005Z,101124.69
2022-09-01T05:25:13.504Z,101125.63
2022-09-01T05:30:28.621Z,101124.60
2022-09-01T05:35:34.611Z,101120.20
2022-09-01T05:44:40.191Z,101117.10
2022-09-01T05:50:14.220Z,101112.14
2022-09-01T05:55:35.124Z,101105.91
2022-09-01T06:00:39.933Z,101110.36
2022-09-01T06:05:45.072Z,101111.56
2022-09-01T06:10:52.881Z,101113.74
2022-09-01T06:16:22.025Z,101115.04
2022-09-01T06:21:42.142Z,101110.81
2022-09-01T06:26:47.987Z,101106.47
2022-09-01T06:31:52.263Z,101112.88
2022-09-01T06:36:55.864Z,101116.70
2022-09-01T06:42:01.676Z,101119.11
2022-09-01T06:47:14.804Z,101129.45
2022-09-01T06:52:23.047Z,101136.80
2022-09-01T07:02:56.348Z,101127.95
2022-09-01T07:08:19.783Z,101129.25
2022-09-01T07:19:14.572Z,101131.88
2022-09-01T07:24:31.106Z,101131.67
2022-09-01T07:29:58.086Z,101126.89
2022-09-01T07:35:01.864Z,101127.66
2022-09-01T07:45:36.454Z,101129.21
2022-09-01T07:56:14.635Z,101125.34
2022-09-01T08:01:23.573Z,101129.02
2022-09-01T08:06:28.995Z,101130.30
2022-09-01T08:11:58.564Z,101129.02
2022-09-01T08:16:56.692Z,101125.41
2022-09-01T08:22:03.501Z,101117.04
2022-09-01T08:27:25.247Z,101121.02
2022-09-01T08:32:28.363Z,101125.66
2022-09-01T08:37:31.657Z,101117.20
2022-09-01T08:42:48.887Z,101121.82
2022-09-01T08:48:28.982Z,101122.61
2022-09-01T08:53:27.097Z,101115.98
2022-09-01T08:58:32.320Z,101116.23
2022-09-01T09:04:09.361Z,101113.65
2022-09-01T09:09:12.581Z,101117.39
2022-09-01T09:14:28.007Z,101102.99
2022-09-01T09:19:34.117Z,101101.89
2022-09-01T09:24:52.576Z,101099.84
2022-09-01T09:30:07.359Z,101099.33
2022-09-01T09:35:23.741Z,101095.30
2022-09-01T09:40:27.183Z,101091.46
2022-09-01T09:45:33.489Z,101092.34
2022-09-01T09:50:38.601Z,101089.04
2022-09-01T09:55:56.208Z,101098.20
2022-09-01T10:01:03.994Z,101102.66
2022-09-01T10:06:13.325Z,101094.43
2022-09-01T10:11:35.699Z,101099.19
2022-09-01T10:16:42.068Z,101094.53
2022-09-01T10:21:46.283Z,101084.58
2022-09-01T10:26:53.602Z,101082.55
2022-09-01T10:32:27.967Z,101082.83
2022-09-01T10:37:22.848Z,101082.18
2022-09-01T10:42:27.323Z,101083.20
2022-09-01T10:47:33.229Z,101077.05
2022-09-01T10:53:06.734Z,101081.08
2022-09-01T11:03:52.641Z,101075.20
2022-09-01T11:09:00.515Z,101076.64
2022-09-01T11:14:15.530Z,101072.67
2022-09-01T11:19:32.294Z,101076.58
2022-09-01T11:25:38.718Z,101084.77
2022-09-01T11:30:54.840Z,101080.02
2022-09-01T11:36:01.113Z,101087.02
2022-09-01T11:41:04.432Z,101081.56
2022-09-01T11:46:18.727Z,101078.11
2022-09-01T11:51:22.436Z,101078.63
2022-09-01T11:56:27.242Z,101071.38
2022-09-01T12:01:35.422Z,101079.20
2022-09-01T12:06:39.030Z,101086.15
2022-09-01T12:11:42.338Z,101079.77
2022-09-01T12:16:57.911Z,101078.19
2022-09-01T12:22:03.942Z,101071.83
2022-09-01T12:27:07.622Z,101077.55
2022-09-01T12:32:13.178Z,101075.54
2022-09-01T12:37:25.703Z,101077.00
2022-09-01T12:42:38.969Z,101066.27
2022-09-01T12:47:50.553Z,101056.09
2022-09-01T12:52:57.536Z,101049.96
2022-09-01T12:58:02.856Z,101052.27
2022-09-01T13:03:13.508Z,101044.05
2022-09-01T13:08:19.318Z,101037.47
2022-09-01T13:13:24.485Z,101031.89
2022-09-01T13:18:28.420Z,101037.88
2022-09-01T13:23:32.213Z,101035.80
2022-09-01T13:28:37.579Z,101040.80
2022-09-01T13:39:06.727Z,101051.70
2022-09-01T13:44:10.467Z,101049.25
2022-09-01T13:54:37.074Z,101046.70
2022-09-01T13:59:41.240Z,101049.19
2022-09-01T14:04:44.547Z,101042.96
2022-09-01T14:09:47.689Z,101039.31
2022-09-01T14:20:17.723Z,101042.18
2022-09-01T14:25:21.481Z,101040.66
2022-09-01T14:30:31.233Z,101042.73
2022-09-01T14:35:38.159Z,101038.95
2022-09-01T14:40:42.559Z,101044.39
2022-09-01T14:45:47.337Z,101040.52
2022-09-01T14:50:50.401Z,101036.69
2022-09-01T14:55:56.271Z,101037.23
2022-09-01T15:01:11.943Z,101040.81
2022-09-01T15:06:24.168Z,101042.89
2022-09-01T15:11:27.754Z,101044.77
2022-09-01T15:16:34.817Z,101044.89
2022-09-01T15:21:39.582Z,101046.98
2022-09-01T15:26:44.552Z,101041.71
2022-09-01T15:31:47.656Z,101048.14
2022-09-01T15:36:51.671Z,101050.25
2022-09-01T15:41:56.218Z,101042.42
2022-09-01T15:46:59.591Z,101038.87
2022-09-01T15:52:03.223Z,101038.39
2022-09-01T15:57:06.311Z,101039.91
2022-09-01T16:02:14.491Z,101036.83
2022-09-01T16:07:17.713Z,101038.12
2022-09-01T16:12:20.951Z,101028.52
2022-09-01T16:17:37.071Z,101027.45
2022-09-01T16:22:47.416Z,101034.68
2022-09-01T16:27:50.740Z,101034.36
2022-09-01T16:32:56.579Z,101037.83
2022-09-01T16:38:09.270Z,101042.62
2022-09-01T16:43:21.964Z,101041.51
2022-09-01T16:48:34.571Z,101042.27
2022-09-01T16:53:58.367Z,101042.54
2022-09-01T16:59:20.921Z,101042.86
2022-09-01T17:04:32.319Z,101046.59
2022-09-01T17:09:40.542Z,101052.86
2022-09-01T17:14:48.932Z,101060.50
2022-09-01T17:19:53.759Z,101063.25
2022-09-01T17:30:08.486Z,101074.33
2022-09-01T17:35:20.249Z,101074.30
2022-09-01T17:40:33.947Z,101084.28
2022-09-01T17:45:46.981Z,101087.84
2022-09-01T17:51:03.459Z,101094.56
2022-09-01T17:56:18.092Z,101103.91
2022-09-01T18:01:29.151Z,101111.02
2022-09-01T18:06:39.875Z,101113.16
2022-09-01T18:11:50.623Z,101125.30
2022-09-01T18:17:01.424Z,101129.03
2022-09-01T18:22:09.109Z,101133.88
2022-09-01T18:27:14.429Z,101142.06
2022-09-01T18:32:27.847Z,101144.70
2022-09-01T18:37:40.834Z,101156.33
2022-09-01T18:42:53.948Z,101161.27
2022-09-01T18:48:01.957Z,101164.20
2022-09-01T18:53:16.780Z,101165.67
2022-09-01T18:58:37.232Z,101170.89
2022-09-01T19:03:46.016Z,101171.26
2022-09-01T19:08:58.424Z,101178.70
2022-09-01T19:14:13.918Z,101180.87
2022-09-01T19:19:33.536Z,101180.98
2022-09-01T19:24:42.965Z,101186.47
2022-09-01T19:29:52.402Z,101185.83
2022-09-01T19:34:58.875Z,101187.06
2022-09-01T19:40:03.408Z,101185.45
2022-09-01T19:45:13.136Z,101185.61
2022-09-01T19:50:20.593Z,101188.61
2022-09-01T19:55:31.429Z,101186.30
2022-09-01T20:00:41.413Z,101191.70
2022-09-01T20:05:49.785Z,101198.02
2022-09-01T20:11:00.034Z,101205.00
2022-09-01T20:16:13.486Z,101205.08
2022-09-01T20:21:21.381Z,101212.40
2022-09-01T20:26:33.834Z,101214.07
2022-09-01T20:31:41.365Z,101218.55
2022-09-01T20:36:49.962Z,101227.77
2022-09-01T20:41:58.970Z,101237.77
2022-09-01T20:47:04.346Z,101239.77
2022-09-01T20:52:15.551Z,101242.67
2022-09-01T21:03:06.736Z,101246.15
2022-09-01T21:08:28.857Z,101244.41
2022-09-01T21:13:48.395Z,101251.48
2022-09-01T21:18:59.602Z,101251.21
2022-09-01T21:24:03.270Z,101252.35
2022-09-01T21:29:19.260Z,101260.55
2022-09-01T21:34:24.873Z,101264.39
2022-09-01T21:39:27.996Z,101269.81
2022-09-01T21:44:31.548Z,101272.31
2022-09-01T21:49:34.861Z,101277.77
2022-09-01T21:54:38.209Z,101282.45
2022-09-01T21:59:41.958Z,101282.12
2022-09-01T22:04:45.623Z,101285.70
2022-09-01T22:09:50.981Z,101290.33
2022-09-01T22:14:54.306Z,101286.13
2022-09-01T22:19:58.132Z,101283.80
2022-09-01T22:25:04.958Z,101281.81
2022-09-01T22:30:10.493Z,101282.27
2022-09-01T22:35:16.069Z,101282.91
2022-09-01T22:40:19.809Z,101283.52
2022-09-01T22:45:23.307Z,101285.33
2022-09-01T22:50:26.609Z,101285.74
2022-09-01T22:55:30.122Z,101287.06
2022-09-01T23:00:33.943Z,101290.65
2022-09-01T23:05:37.027Z,101290.55
2022-09-01T23:10:40.334Z,101290.44
2022-09-01T23:15:43.524Z,101294.13
2022-09-01T23:20:47.254Z,101291.06
2022-09-01T23:25:53.542Z,101292.32
2022-09-01T23:30:56.854Z,101290.60
2022-09-01T23:36:00.034Z,101293.21
2022-09-01T23:41:06.595Z,101299.48
2022-09-01T23:46:18.212Z,101300.39
2022-09-01T23:51:21.630Z,101299.36
2022-09-01T23:56:28.186Z,101301.29
